createdAt,value
2022-10-30T00:02:23.472Z,3.65
2022-10-30T00:04:50.162Z,4.35
2022-10-30T00:07:16.721Z,3.88
2022-10-30T00:09:43.273Z,2.88
2022-10-30T00:12:09.921Z,4.18
2022-10-30T00:14:36.471Z,3.20
2022-10-30T00:17:03.066Z,3.03
2022-10-30T00:19:29.828Z,3.20
2022-10-30T00:24:23.810Z,3.63
2022-10-30T00:26:50.456Z,4.03
2022-10-30T00:29:17.160Z,3.38
2022-10-30T00:31:43.767Z,3.45
2022-10-30T00:34:10.393Z,3.25
2022-10-30T00:36:37.068Z,2.90
2022-10-30T00:39:05.600Z,3.33
2022-10-30T00:41:32.288Z,3.03
2022-10-30T00:43:58.870Z,2.70
2022-10-30T00:46:33.456Z,3.15
2022-10-30T00:49:02.501Z,2.87
2022-10-30T00:51:31.864Z,2.47
2022-10-30T00:54:02.725Z,2.15
2022-10-30T00:56:29.689Z,2.65
2022-10-30T00:59:04.064Z,2.55
2022-10-30T01:01:36.096Z,3.42
2022-10-30T01:04:04.983Z,3.60
2022-10-30T01:06:35.739Z,2.40
2022-10-30T01:09:03.700Z,2.45
2022-10-30T01:11:30.815Z,2.42
2022-10-30T01:14:06.082Z,3.03
2022-10-30T01:17:06.980Z,3.13
2022-10-30T01:23:16.074Z,3.13
2022-10-30T01:26:01.369Z,1.88
2022-10-30T01:28:43.350Z,2.35
2022-10-30T01:31:45.492Z,1.98
2022-10-30T01:34:37.844Z,3.22
2022-10-30T01:37:14.333Z,3.97
2022-10-30T01:39:43.363Z,1.95
2022-10-30T01:42:11.689Z,2.67
2022-10-30T01:44:38.996Z,2.35
2022-10-30T01:47:08.628Z,2.50
2022-10-30T01:50:09.829Z,2.30
2022-10-30T01:52:56.107Z,2.60
2022-10-30T01:55:32.523Z,2.72
2022-10-30T01:58:22.504Z,3.20
2022-10-30T02:00:56.759Z,2.78
2022-10-30T02:03:24.308Z,2.60
2022-10-30T02:05:52.908Z,2.72
2022-10-30T02:08:21.766Z,2.80
2022-10-30T02:10:52.223Z,2.42
2022-10-30T02:13:29.815Z,2.60
2022-10-30T02:15:58.783Z,2.95
2022-10-30T02:18:25.581Z,2.88
2022-10-30T02:20:53.786Z,3.05
2022-10-30T02:23:22.338Z,3.20
2022-10-30T02:25:50.195Z,2.58
2022-10-30T02:28:16.858Z,2.15
2022-10-30T02:30:46.434Z,2.17
2022-10-30T02:33:13.063Z,3.15
2022-10-30T02:35:39.735Z,3.10
2022-10-30T02:38:08.069Z,3.45
2022-10-30T02:40:34.838Z,2.70
2022-10-30T02:43:01.466Z,2.78
2022-10-30T02:45:29.489Z,2.55
2022-10-30T02:47:56.801Z,3.17
2022-10-30T02:50:23.673Z,2.42
2022-10-30T02:52:51.674Z,2.67
2022-10-30T02:55:18.772Z,2.15
2022-10-30T02:57:46.803Z,3.03
2022-10-30T03:00:14.161Z,2.20
2022-10-30T03:02:40.793Z,2.28
2022-10-30T03:05:07.863Z,2.03
2022-10-30T03:07:34.510Z,2.38
2022-10-30T03:10:01.207Z,2.80
2022-10-30T03:12:29.409Z,2.20
2022-10-30T03:14:56.079Z,3.05
2022-10-30T03:17:22.647Z,3.78
2022-10-30T03:19:49.264Z,2.92
2022-10-30T03:22:16.049Z,2.38
2022-10-30T03:24:42.663Z,3.75
2022-10-30T03:27:09.273Z,1.95
2022-10-30T03:29:38.075Z,2.58
2022-10-30T03:32:08.348Z,2.65
2022-10-30T03:34:42.627Z,2.33
2022-10-30T03:37:09.372Z,2.78
2022-10-30T03:39:35.940Z,2.50
2022-10-30T03:42:03.108Z,3.13
2022-10-30T03:44:29.769Z,3.20
2022-10-30T03:46:58.249Z,2.28
2022-10-30T03:49:32.939Z,2.45
2022-10-30T03:52:02.520Z,1.92
2022-10-30T03:54:29.093Z,3.47
2022-10-30T03:56:55.848Z,2.92
2022-10-30T03:59:25.813Z,2.25
2022-10-30T04:04:46.496Z,2.30
2022-10-30T04:07:13.795Z,2.22
2022-10-30T04:09:40.508Z,2.00
2022-10-30T04:12:07.073Z,2.08
2022-10-30T04:14:33.703Z,2.40
2022-10-30T04:17:00.395Z,1.80
2022-10-30T04:19:27.101Z,2.92
2022-10-30T04:21:53.712Z,2.50
2022-10-30T04:24:20.597Z,2.33
2022-10-30T04:26:52.494Z,2.45
2022-10-30T04:29:19.167Z,2.40
2022-10-30T04:31:45.891Z,2.33
2022-10-30T04:34:13.884Z,2.33
2022-10-30T04:36:40.508Z,2.05
2022-10-30T04:39:07.310Z,2.88
2022-10-30T04:41:35.129Z,2.92
2022-10-30T04:44:07.650Z,2.53
2022-10-30T04:46:34.474Z,2.95
2022-10-30T04:49:09.430Z,2.30
2022-10-30T04:51:36.027Z,2.33
2022-10-30T04:54:04.571Z,2.45
2022-10-30T04:56:33.065Z,2.22
2022-10-30T04:58:59.903Z,3.15
2022-10-30T05:01:26.674Z,2.53
2022-10-30T05:03:54.866Z,2.35
2022-10-30T05:06:25.865Z,2.00
2022-10-30T05:08:52.537Z,2.40
2022-10-30T05:11:29.417Z,2.35
2022-10-30T05:13:56.333Z,2.10
2022-10-30T05:16:22.901Z,2.35
2022-10-30T05:18:51.407Z,2.10
2022-10-30T05:21:17.947Z,2.03
2022-10-30T05:23:46.210Z,2.28
2022-10-30T05:26:13.031Z,2.47
2022-10-30T05:28:41.081Z,2.03
2022-10-30T05:31:08.082Z,2.53
2022-10-30T05:34:03.162Z,2.22
2022-10-30T05:36:33.304Z,2.58
2022-10-30T05:38:59.926Z,2.22
2022-10-30T05:41:32.459Z,2.30
2022-10-30T05:43:59.086Z,2.30
2022-10-30T05:46:26.233Z,2.58
2022-10-30T05:48:54.357Z,2.25
2022-10-30T05:51:21.823Z,2.33
2022-10-30T05:53:53.028Z,2.63
2022-10-30T05:56:23.608Z,1.67
2022-10-30T05:58:51.072Z,2.20
2022-10-30T06:01:17.727Z,2.05
2022-10-30T06:03:49.538Z,2.47
2022-10-30T06:06:16.468Z,2.22
2022-10-30T06:08:44.090Z,1.98
2022-10-30T06:11:43.060Z,2.38
2022-10-30T06:14:10.978Z,2.40
2022-10-30T06:16:45.940Z,2.50
2022-10-30T06:19:31.133Z,2.28
2022-10-30T06:22:08.975Z,1.75
2022-10-30T06:24:47.868Z,2.30
2022-10-30T06:27:23.615Z,2.90
2022-10-30T06:29:50.846Z,1.92
2022-10-30T06:32:17.404Z,3.03
2022-10-30T06:34:45.264Z,2.03
2022-10-30T06:37:13.753Z,3.03
2022-10-30T06:39:40.437Z,1.75
2022-10-30T06:42:27.598Z,2.95
2022-10-30T06:45:06.429Z,1.90
2022-10-30T06:47:37.212Z,2.35
2022-10-30T06:50:10.332Z,3.38
2022-10-30T06:52:37.645Z,2.30
2022-10-30T06:55:05.130Z,2.22
2022-10-30T06:57:57.988Z,2.40
2022-10-30T07:00:37.391Z,2.38
2022-10-30T07:03:22.648Z,2.50
2022-10-30T07:05:49.483Z,3.10
2022-10-30T07:08:16.338Z,2.70
2022-10-30T07:10:43.538Z,2.95
2022-10-30T07:13:36.571Z,2.13
2022-10-30T07:16:17.864Z,2.88
2022-10-30T07:18:47.212Z,3.08
2022-10-30T07:21:14.405Z,3.10
2022-10-30T07:23:41.354Z,2.60
2022-10-30T07:26:23.681Z,2.70
2022-10-30T07:28:52.689Z,3.00
2022-10-30T07:31:57.940Z,2.47
2022-10-30T07:34:32.763Z,2.50
2022-10-30T07:37:31.654Z,3.78
2022-10-30T07:40:11.505Z,2.95
2022-10-30T07:43:03.810Z,2.70
2022-10-30T07:45:36.217Z,2.58
2022-10-30T07:48:21.265Z,3.27
2022-10-30T07:50:59.528Z,2.90
2022-10-30T07:53:27.013Z,2.45
2022-10-30T07:55:57.851Z,3.75
2022-10-30T07:58:45.558Z,3.03
2022-10-30T08:01:51.289Z,3.17
2022-10-30T08:04:45.197Z,3.00
2022-10-30T08:07:36.649Z,2.55
2022-10-30T08:10:04.378Z,4.15
2022-10-30T08:12:33.499Z,3.95
2022-10-30T08:15:00.988Z,2.80
2022-10-30T08:17:28.176Z,2.88
2022-10-30T08:19:55.484Z,3.13
2022-10-30T08:22:22.176Z,3.25
2022-10-30T08:27:24.437Z,2.65
2022-10-30T08:29:51.351Z,3.67
2022-10-30T08:32:18.063Z,3.03
2022-10-30T08:35:03.213Z,3.15
2022-10-30T08:37:30.438Z,2.42
2022-10-30T08:39:57.086Z,2.80
2022-10-30T08:42:35.309Z,3.13
2022-10-30T08:45:07.767Z,2.40
2022-10-30T08:47:37.481Z,3.22
2022-10-30T08:50:04.545Z,4.07
2022-10-30T08:52:32.219Z,3.03
2022-10-30T08:54:59.110Z,4.20
2022-10-30T08:57:27.739Z,2.92
2022-10-30T08:59:56.666Z,2.45
2022-10-30T09:02:43.446Z,2.20
2022-10-30T09:05:33.264Z,2.95
2022-10-30T09:08:29.498Z,2.50
2022-10-30T09:11:06.313Z,2.60
2022-10-30T09:13:33.512Z,2.33
2022-10-30T09:16:02.804Z,2.88
2022-10-30T09:18:32.573Z,3.22
2022-10-30T09:21:03.095Z,3.28
2022-10-30T09:23:35.319Z,2.33
2022-10-30T09:26:34.414Z,2.42
2022-10-30T09:29:08.753Z,2.40
2022-10-30T09:31:44.661Z,2.83
2022-10-30T09:34:15.137Z,2.42
2022-10-30T09:36:48.085Z,1.90
2022-10-30T09:39:14.941Z,2.63
2022-10-30T09:41:53.798Z,2.47
2022-10-30T09:44:45.863Z,3.25
2022-10-30T09:47:28.452Z,2.95
2022-10-30T09:50:17.438Z,2.05
2022-10-30T09:53:03.975Z,2.72
2022-10-30T09:55:42.016Z,1.98
2022-10-30T09:58:16.505Z,2.55
2022-10-30T10:01:06.084Z,2.47
2022-10-30T10:03:48.867Z,2.45
2022-10-30T10:06:57.244Z,2.20
2022-10-30T10:09:44.456Z,2.85
2022-10-30T10:12:34.363Z,2.10
2022-10-30T10:15:06.447Z,2.97
2022-10-30T10:17:41.393Z,2.75
2022-10-30T10:20:26.908Z,2.83
2022-10-30T10:22:56.577Z,3.00
2022-10-30T10:25:24.895Z,2.55
2022-10-30T10:28:17.645Z,2.25
2022-10-30T10:31:03.121Z,2.58
2022-10-30T10:33:59.053Z,2.10
2022-10-30T10:36:28.508Z,3.47
2022-10-30T10:39:13.566Z,3.00
2022-10-30T10:42:06.807Z,3.77
2022-10-30T10:45:01.278Z,2.67
2022-10-30T10:47:49.077Z,3.15
2022-10-30T10:50:28.448Z,2.63
2022-10-30T10:53:05.763Z,3.13
2022-10-30T10:55:36.352Z,3.13
2022-10-30T10:58:14.630Z,2.30
2022-10-30T11:00:42.312Z,2.30
2022-10-30T11:03:17.928Z,3.22
2022-10-30T11:05:55.392Z,2.47
2022-10-30T11:08:33.230Z,2.92
2022-10-30T11:11:02.279Z,2.72
2022-10-30T11:13:49.680Z,2.72
2022-10-30T11:16:33.450Z,2.95
2022-10-30T11:19:03.023Z,2.80
2022-10-30T11:21:35.194Z,3.13
2022-10-30T11:24:01.884Z,4.07
2022-10-30T11:26:31.689Z,3.65
2022-10-30T11:29:27.517Z,3.67
2022-10-30T11:32:06.177Z,2.53
2022-10-30T11:34:42.166Z,2.28
2022-10-30T11:37:29.585Z,3.35
2022-10-30T11:40:06.980Z,4.05
2022-10-30T11:42:34.842Z,4.45
2022-10-30T11:45:02.491Z,3.55
2022-10-30T11:47:37.339Z,3.10
2022-10-30T11:50:20.205Z,2.55
2022-10-30T11:52:49.260Z,2.58
2022-10-30T11:55:36.487Z,2.83
2022-10-30T11:58:06.124Z,2.78
2022-10-30T12:00:36.255Z,2.88
2022-10-30T12:03:03.601Z,2.83
2022-10-30T12:05:43.734Z,3.75
2022-10-30T12:08:20.839Z,3.03
2022-10-30T12:11:02.601Z,3.08
2022-10-30T12:13:36.418Z,3.42
2022-10-30T12:16:10.441Z,3.55
2022-10-30T12:18:37.247Z,2.45
2022-10-30T12:21:04.264Z,3.10
2022-10-30T12:23:32.339Z,3.40
2022-10-30T12:26:01.995Z,2.97
2022-10-30T12:28:31.445Z,2.72
2022-10-30T12:31:04.049Z,2.45
2022-10-30T12:33:39.550Z,3.08
2022-10-30T12:38:44.308Z,2.38
2022-10-30T12:41:34.809Z,2.63
2022-10-30T12:44:04.505Z,6.65
2022-10-30T12:46:41.943Z,8.95
2022-10-30T12:49:18.645Z,6.70
2022-10-30T12:51:59.409Z,3.20
2022-10-30T12:54:35.980Z,2.35
2022-10-30T12:57:13.738Z,3.00
2022-10-30T12:59:40.405Z,2.15
2022-10-30T13:02:23.820Z,3.30
2022-10-30T13:04:57.804Z,2.70
2022-10-30T13:07:38.575Z,2.83
2022-10-30T13:10:28.501Z,3.60
2022-10-30T13:13:02.092Z,2.90
2022-10-30T13:15:38.289Z,2.92
2022-10-30T13:18:20.605Z,2.42
2022-10-30T13:21:10.296Z,2.80
2022-10-30T13:23:50.409Z,3.35
2022-10-30T13:26:50.931Z,4.15
2022-10-30T13:29:26.722Z,3.65
2022-10-30T13:32:11.308Z,2.80
2022-10-30T13:34:41.440Z,2.65
2022-10-30T13:37:16.467Z,2.97
2022-10-30T13:40:26.343Z,2.88
2022-10-30T13:43:02.551Z,2.67
2022-10-30T13:46:08.451Z,3.25
2022-10-30T13:48:37.992Z,2.88
2022-10-30T13:51:23.000Z,3.30
2022-10-30T13:54:04.667Z,2.63
2022-10-30T13:56:33.983Z,3.75
2022-10-30T13:59:12.760Z,4.30
2022-10-30T14:01:47.922Z,5.28
2022-10-30T14:04:44.620Z,3.40
2022-10-30T14:07:42.510Z,3.00
2022-10-30T14:10:46.052Z,3.00
2022-10-30T14:13:27.508Z,3.67
2022-10-30T14:16:07.626Z,3.13
2022-10-30T14:19:00.978Z,2.92
2022-10-30T14:21:58.862Z,4.25
2022-10-30T14:24:33.865Z,2.75
2022-10-30T14:27:03.472Z,3.83
2022-10-30T14:29:34.663Z,4.47
2022-10-30T14:32:22.078Z,2.92
2022-10-30T14:34:51.895Z,3.22
2022-10-30T14:37:38.547Z,3.90
2022-10-30T14:40:47.506Z,2.72
2022-10-30T14:43:55.347Z,3.83
2022-10-30T14:46:42.578Z,2.33
2022-10-30T14:49:57.582Z,3.75
2022-10-30T14:52:30.414Z,3.40
2022-10-30T14:55:18.881Z,2.40
2022-10-30T14:57:51.774Z,4.50
2022-10-30T15:00:24.172Z,3.30
2022-10-30T15:02:57.912Z,3.85
2022-10-30T15:05:58.675Z,2.80
2022-10-30T15:08:47.142Z,3.90
2022-10-30T15:11:43.669Z,3.80
2022-10-30T15:14:26.608Z,4.97
2022-10-30T15:16:59.690Z,4.15
2022-10-30T15:19:27.743Z,3.95
2022-10-30T15:21:56.717Z,2.85
2022-10-30T15:24:32.010Z,3.00
2022-10-30T15:27:01.009Z,5.28
2022-10-30T15:29:31.513Z,4.50
2022-10-30T15:32:00.353Z,3.97
2022-10-30T15:34:29.524Z,4.43
2022-10-30T15:36:56.804Z,4.18
2022-10-30T15:39:24.142Z,5.90
2022-10-30T15:41:54.589Z,5.10
2022-10-30T15:44:27.400Z,2.92
2022-10-30T15:46:56.888Z,3.85
2022-10-30T15:49:34.147Z,2.28
2022-10-30T15:52:12.881Z,5.28
2022-10-30T15:54:43.965Z,8.75
2022-10-30T15:57:49.874Z,7.60
2022-10-30T16:00:20.571Z,3.33
2022-10-30T16:02:51.728Z,5.10
2022-10-30T16:05:22.855Z,6.50
2022-10-30T16:07:49.658Z,7.57
2022-10-30T16:10:17.605Z,7.22
2022-10-30T16:12:44.554Z,6.43
2022-10-30T16:15:30.820Z,5.10
2022-10-30T16:18:15.450Z,6.32
2022-10-30T16:20:44.884Z,8.07
2022-10-30T16:23:13.853Z,15.13
2022-10-30T16:25:46.799Z,6.70
2022-10-30T16:28:29.093Z,9.20
2022-10-30T16:31:02.354Z,24.17
2022-10-30T16:33:30.740Z,16.85
2022-10-30T16:35:58.480Z,10.75
2022-10-30T16:38:28.383Z,9.48
2022-10-30T16:40:56.354Z,4.90
2022-10-30T16:43:28.631Z,6.28
2022-10-30T16:45:57.496Z,7.10
2022-10-30T16:48:34.038Z,4.97
2022-10-30T16:51:03.241Z,5.28
2022-10-30T16:53:30.593Z,6.22
2022-10-30T16:55:59.024Z,8.23
2022-10-30T16:58:29.865Z,12.77
2022-10-30T17:01:03.984Z,12.80
2022-10-30T17:03:37.494Z,11.18
2022-10-30T17:06:25.960Z,10.30
2022-10-30T17:08:54.466Z,7.75
2022-10-30T17:11:35.559Z,4.15
2022-10-30T17:14:10.201Z,4.63
2022-10-30T17:16:40.066Z,8.23
2022-10-30T17:19:46.341Z,11.70
2022-10-30T17:22:17.532Z,35.97
2022-10-30T17:24:44.828Z,27.98
2022-10-30T17:27:28.271Z,30.33
2022-10-30T17:29:55.071Z,24.48
2022-10-30T17:32:27.222Z,28.23
2022-10-30T17:35:12.662Z,21.70
2022-10-30T17:37:42.153Z,16.58
2022-10-30T17:40:10.732Z,12.95
2022-10-30T17:42:37.433Z,21.52
2022-10-30T17:45:07.060Z,29.05
2022-10-30T17:47:34.445Z,35.22
2022-10-30T17:50:03.138Z,22.90
2022-10-30T17:52:29.726Z,18.33
2022-10-30T17:54:56.377Z,14.75
2022-10-30T17:57:25.334Z,10.10
2022-10-30T17:59:51.952Z,5.20
2022-10-30T18:02:20.574Z,7.50
2022-10-30T18:04:48.238Z,6.68
2022-10-30T18:07:16.367Z,10.57
2022-10-30T18:09:43.628Z,11.70
2022-10-30T18:12:16.243Z,8.40
2022-10-30T18:14:44.282Z,7.57
2022-10-30T18:17:11.249Z,12.05
2022-10-30T18:19:38.044Z,13.75
2022-10-30T18:22:04.606Z,17.98
2022-10-30T18:24:31.269Z,10.15
2022-10-30T18:26:58.525Z,14.20
2022-10-30T18:29:25.178Z,20.00
2022-10-30T18:31:51.811Z,11.48
2022-10-30T18:34:21.436Z,6.70
2022-10-30T18:36:48.992Z,6.18
2022-10-30T18:39:15.753Z,6.60
2022-10-30T18:41:47.004Z,10.18
2022-10-30T18:44:17.995Z,10.02
2022-10-30T18:46:45.656Z,7.43
2022-10-30T18:49:12.919Z,6.97
2022-10-30T18:51:40.062Z,5.13
2022-10-30T18:54:15.440Z,3.90
2022-10-30T18:56:42.650Z,4.10
2022-10-30T18:59:09.199Z,3.20
2022-10-30T19:01:36.387Z,3.75
2022-10-30T19:04:09.529Z,3.97
2022-10-30T19:06:38.529Z,4.20
2022-10-30T19:09:05.225Z,4.05
2022-10-30T19:11:32.303Z,4.63
2022-10-30T19:13:59.423Z,3.70
2022-10-30T19:16:26.173Z,4.70
2022-10-30T19:18:53.197Z,5.05
2022-10-30T19:21:25.870Z,4.28
2022-10-30T19:23:54.044Z,4.22
2022-10-30T19:26:20.851Z,3.53
2022-10-30T19:28:47.565Z,3.30
2022-10-30T19:31:16.577Z,3.55
2022-10-30T19:33:43.538Z,4.03
2022-10-30T19:36:30.143Z,5.55
2022-10-30T19:38:57.186Z,7.18
2022-10-30T19:41:24.637Z,5.55
2022-10-30T19:43:53.049Z,5.13
2022-10-30T19:46:20.476Z,5.53
2022-10-30T19:48:57.374Z,4.95
2022-10-30T19:51:25.599Z,5.18
2022-10-30T19:53:53.629Z,4.82
2022-10-30T19:56:21.230Z,4.85
2022-10-30T19:58:47.918Z,3.97
2022-10-30T20:01:14.832Z,4.05
2022-10-30T20:03:41.564Z,4.40
2022-10-30T20:06:11.769Z,4.13
2022-10-30T20:08:38.544Z,3.78
2022-10-30T20:11:05.212Z,4.85
2022-10-30T20:13:33.379Z,5.22
2022-10-30T20:16:03.319Z,4.05
2022-10-30T20:18:32.113Z,3.70
2022-10-30T20:21:00.648Z,3.75
2022-10-30T20:23:28.261Z,4.07
2022-10-30T20:26:01.490Z,4.38
2022-10-30T20:28:42.792Z,3.55
2022-10-30T20:31:12.251Z,3.95
2022-10-30T20:33:39.580Z,4.03
2022-10-30T20:36:06.544Z,3.40
2022-10-30T20:38:35.159Z,3.72
2022-10-30T20:41:04.604Z,3.20
2022-10-30T20:43:36.941Z,3.33
2022-10-30T20:46:05.899Z,3.40
2022-10-30T20:48:32.857Z,4.05
2022-10-30T20:51:01.404Z,3.63
2022-10-30T20:53:29.425Z,3.35
2022-10-30T20:55:57.117Z,3.30
2022-10-30T20:58:24.721Z,4.70
2022-10-30T21:00:55.286Z,8.60
2022-10-30T21:03:22.115Z,6.82
2022-10-30T21:05:58.141Z,6.47
2022-10-30T21:08:25.930Z,6.93
2022-10-30T21:10:52.613Z,5.97
2022-10-30T21:13:19.889Z,4.38
2022-10-30T21:15:46.682Z,5.60
2022-10-30T21:18:13.900Z,4.88
2022-10-30T21:20:43.394Z,4.28
2022-10-30T21:23:11.034Z,4.68
2022-10-30T21:25:37.861Z,4.93
2022-10-30T21:28:04.790Z,4.28
2022-10-30T21:30:31.339Z,3.90
2022-10-30T21:32:59.347Z,4.40
2022-10-30T21:35:27.023Z,4.18
2022-10-30T21:37:53.693Z,3.78
2022-10-30T21:40:20.268Z,4.13
2022-10-30T21:42:49.708Z,4.82
2022-10-30T21:45:16.595Z,3.97
2022-10-30T21:47:43.401Z,4.20
2022-10-30T21:50:12.214Z,4.10
2022-10-30T21:52:39.993Z,4.03
2022-10-30T21:55:07.206Z,3.65
2022-10-30T21:57:34.088Z,4.32
2022-10-30T22:00:03.657Z,4.47
2022-10-30T22:02:34.938Z,3.83
2022-10-30T22:05:01.537Z,5.05
2022-10-30T22:07:28.182Z,4.22
2022-10-30T22:09:54.857Z,3.60
2022-10-30T22:12:21.468Z,3.05
2022-10-30T22:14:48.057Z,3.10
2022-10-30T22:17:14.731Z,2.92
2022-10-30T22:19:41.308Z,4.60
2022-10-30T22:22:08.064Z,4.20
2022-10-30T22:24:34.866Z,3.55
2022-10-30T22:27:01.490Z,3.03
2022-10-30T22:29:28.047Z,3.50
2022-10-30T22:31:54.743Z,2.58
2022-10-30T22:34:21.358Z,2.92
2022-10-30T22:36:47.964Z,3.45
2022-10-30T22:39:14.659Z,2.80
2022-10-30T22:41:41.928Z,3.90
2022-10-30T22:44:12.262Z,3.53
2022-10-30T22:46:39.370Z,4.05
2022-10-30T22:49:07.081Z,3.55
2022-10-30T22:51:35.936Z,3.47
2022-10-30T22:54:04.539Z,3.55
2022-10-30T22:56:33.295Z,3.38
2022-10-30T22:59:17.939Z,3.83
2022-10-30T23:01:44.692Z,3.03
2022-10-30T23:04:14.034Z,4.22
2022-10-30T23:06:41.127Z,3.53
2022-10-30T23:09:14.363Z,3.17
2022-10-30T23:11:41.274Z,3.83
2022-10-30T23:14:07.847Z,3.78
2022-10-30T23:16:34.502Z,3.15
2022-10-30T23:19:01.616Z,2.85
2022-10-30T23:21:30.929Z,3.53
2022-10-30T23:23:58.224Z,2.80
2022-10-30T23:26:31.229Z,3.78
2022-10-30T23:28:58.943Z,3.10
2022-10-30T23:31:26.952Z,3.72
2022-10-30T23:33:56.177Z,3.15
2022-10-30T23:36:23.110Z,4.05
2022-10-30T23:39:04.296Z,4.68
2022-10-30T23:41:34.139Z,4.78
2022-10-30T23:44:04.997Z,3.45
2022-10-30T23:46:32.222Z,3.58
2022-10-30T23:48:58.867Z,4.25
2022-10-30T23:51:25.650Z,3.53
2022-10-30T23:53:52.419Z,3.50
2022-10-30T23:56:19.538Z,3.40
2022-10-30T23:58:47.762Z,3.72
